createdAt,value
2023-04-07T00:01:18.132Z,6.70
2023-04-07T00:03:44.943Z,5.97
2023-04-07T00:06:11.578Z,6.49
2023-04-07T00:08:38.506Z,6.45
2023-04-07T00:11:05.564Z,6.43
2023-04-07T00:13:32.254Z,6.29
2023-04-07T00:15:58.894Z,6.50
2023-04-07T00:18:25.570Z,6.52
2023-04-07T00:20:52.147Z,6.47
2023-04-07T00:23:18.750Z,6.43
2023-04-07T00:25:45.476Z,6.34
2023-04-07T00:28:12.097Z,6.31
2023-04-07T00:30:38.619Z,6.30
2023-04-07T00:33:05.279Z,6.32
2023-04-07T00:35:36.642Z,6.23
2023-04-07T00:38:03.609Z,5.78
2023-04-07T00:40:30.266Z,6.12
2023-04-07T00:42:57.418Z,5.65
2023-04-07T00:45:24.014Z,6.13
2023-04-07T00:47:50.993Z,6.15
2023-04-07T00:53:08.056Z,6.00
2023-04-07T00:55:34.825Z,6.04
2023-04-07T00:58:01.446Z,6.00
2023-04-07T01:00:28.418Z,5.97
2023-04-07T01:03:02.132Z,6.03
2023-04-07T01:05:54.786Z,6.02
2023-04-07T01:08:27.239Z,5.38
2023-04-07T01:10:59.616Z,5.81
2023-04-07T01:13:32.273Z,5.77
2023-04-07T01:16:04.326Z,5.51
2023-04-07T01:18:36.878Z,5.72
2023-04-07T01:21:07.763Z,5.73
2023-04-07T01:23:52.117Z,5.50
2023-04-07T01:26:33.697Z,5.68
2023-04-07T01:29:26.312Z,5.67
2023-04-07T01:31:56.121Z,5.67
2023-04-07T01:34:26.147Z,5.63
2023-04-07T01:36:54.664Z,5.64
2023-04-07T01:39:21.937Z,5.76
2023-04-07T01:41:51.573Z,5.64
2023-04-07T01:44:19.727Z,5.24
2023-04-07T01:46:46.755Z,5.57
2023-04-07T01:49:14.342Z,5.58
2023-04-07T01:51:42.493Z,5.48
2023-04-07T01:54:09.705Z,5.29
2023-04-07T01:56:36.251Z,5.52
2023-04-07T01:59:02.800Z,5.51
2023-04-07T02:01:29.924Z,5.08
2023-04-07T02:04:05.421Z,5.46
2023-04-07T02:06:37.884Z,5.47
2023-04-07T02:09:08.041Z,5.48
2023-04-07T02:11:37.517Z,5.35
2023-04-07T02:14:06.589Z,5.10
2023-04-07T02:16:33.575Z,5.28
2023-04-07T02:19:00.438Z,5.29
2023-04-07T02:21:28.442Z,5.42
2023-04-07T02:23:55.334Z,5.26
2023-04-07T02:26:22.201Z,5.29
2023-04-07T02:28:48.757Z,5.36
2023-04-07T02:31:15.389Z,5.28
2023-04-07T02:33:42.012Z,5.34
2023-04-07T02:36:08.639Z,4.93
2023-04-07T02:38:35.209Z,4.01
2023-04-07T02:41:01.826Z,5.11
2023-04-07T02:43:28.433Z,5.16
2023-04-07T02:45:55.304Z,5.11
2023-04-07T02:48:21.901Z,5.16
2023-04-07T02:50:48.538Z,5.12
2023-04-07T02:53:15.185Z,4.94
2023-04-07T02:55:42.056Z,4.81
2023-04-07T02:58:08.696Z,5.02
2023-04-07T03:00:35.400Z,5.14
2023-04-07T03:03:02.204Z,5.14
2023-04-07T03:05:29.023Z,5.02
2023-04-07T03:07:55.618Z,4.97
2023-04-07T03:10:22.188Z,4.97
2023-04-07T03:12:49.638Z,4.70
2023-04-07T03:15:18.634Z,4.92
2023-04-07T03:17:46.081Z,5.02
2023-04-07T03:20:13.245Z,5.00
2023-04-07T03:22:39.866Z,4.72
2023-04-07T03:25:06.829Z,4.96
2023-04-07T03:27:33.442Z,4.94
2023-04-07T03:30:00.015Z,4.97
2023-04-07T03:32:26.776Z,5.06
2023-04-07T03:34:53.444Z,4.79
2023-04-07T03:37:20.053Z,4.70
2023-04-07T03:39:46.673Z,4.88
2023-04-07T03:42:13.390Z,4.75
2023-04-07T03:44:39.982Z,4.85
2023-04-07T03:47:06.557Z,4.91
2023-04-07T03:49:33.515Z,4.83
2023-04-07T03:52:00.091Z,4.76
2023-04-07T03:54:26.799Z,4.75
2023-04-07T03:56:53.446Z,4.65
2023-04-07T03:59:20.071Z,4.77
2023-04-07T04:01:46.703Z,4.76
2023-04-07T04:04:13.497Z,4.44
2023-04-07T04:06:40.434Z,4.79
2023-04-07T04:09:06.985Z,4.86
2023-04-07T04:11:33.647Z,4.55
2023-04-07T04:14:00.361Z,4.84
2023-04-07T04:16:27.094Z,4.35
2023-04-07T04:18:53.658Z,4.62
2023-04-07T04:21:20.370Z,4.62
2023-04-07T04:23:47.180Z,4.56
2023-04-07T04:26:13.717Z,4.49
2023-04-07T04:28:40.527Z,4.45
2023-04-07T04:31:07.112Z,4.34
2023-04-07T04:33:33.859Z,4.40
2023-04-07T04:36:00.436Z,4.57
2023-04-07T04:38:27.278Z,4.24
2023-04-07T04:40:54.033Z,4.62
2023-04-07T04:43:20.578Z,4.45
2023-04-07T04:45:47.692Z,4.46
2023-04-07T04:48:14.306Z,4.35
2023-04-07T04:50:42.445Z,4.35
2023-04-07T04:53:10.365Z,4.40
2023-04-07T04:55:37.270Z,4.41
2023-04-07T04:58:03.812Z,4.42
2023-04-07T05:00:30.410Z,4.42
2023-04-07T05:02:57.263Z,4.40
2023-04-07T05:05:24.059Z,4.43
2023-04-07T05:07:51.051Z,4.51
2023-04-07T05:10:17.850Z,4.51
2023-04-07T05:12:44.939Z,4.57
2023-04-07T05:15:11.885Z,4.52
2023-04-07T05:17:38.567Z,4.47
2023-04-07T05:20:05.766Z,4.38
2023-04-07T05:22:32.353Z,4.48
2023-04-07T05:24:58.903Z,4.71
2023-04-07T05:27:25.801Z,4.38
2023-04-07T05:29:52.613Z,4.60
2023-04-07T05:32:19.736Z,4.35
2023-04-07T05:34:46.334Z,4.65
2023-04-07T05:37:12.883Z,4.93
2023-04-07T05:39:39.569Z,4.87
2023-04-07T05:42:06.435Z,4.94
2023-04-07T05:44:33.046Z,4.94
2023-04-07T05:46:59.603Z,4.60
2023-04-07T05:49:26.623Z,5.04
2023-04-07T05:51:53.216Z,4.17
2023-04-07T05:54:19.824Z,5.07
2023-04-07T05:56:46.441Z,5.08
2023-04-07T05:59:12.983Z,5.14
2023-04-07T06:01:39.627Z,5.19
2023-04-07T06:04:06.356Z,5.26
2023-04-07T06:06:33.050Z,5.42
2023-04-07T06:08:59.881Z,5.18
2023-04-07T06:11:27.514Z,5.40
2023-04-07T06:13:54.412Z,5.49
2023-04-07T06:16:21.457Z,5.56
2023-04-07T06:18:48.045Z,5.75
2023-04-07T06:21:14.683Z,5.50
2023-04-07T06:23:42.524Z,5.60
2023-04-07T06:26:12.017Z,5.95
2023-04-07T06:28:39.197Z,5.94
2023-04-07T06:31:06.350Z,6.12
2023-04-07T06:33:32.948Z,6.10
2023-04-07T06:35:59.563Z,6.29
2023-04-07T06:38:26.556Z,6.40
2023-04-07T06:40:53.143Z,6.44
2023-04-07T06:43:19.748Z,6.38
2023-04-07T06:45:46.571Z,6.60
2023-04-07T06:48:13.248Z,6.53
2023-04-07T06:50:39.848Z,6.20
2023-04-07T06:53:06.497Z,6.79
2023-04-07T06:55:33.168Z,6.87
2023-04-07T06:57:59.704Z,7.01
2023-04-07T07:00:27.330Z,6.69
2023-04-07T07:02:53.954Z,7.16
2023-04-07T07:05:20.675Z,7.40
2023-04-07T07:07:47.251Z,7.56
2023-04-07T07:10:14.005Z,7.44
2023-04-07T07:12:40.945Z,7.71
2023-04-07T07:15:08.160Z,7.69
2023-04-07T07:17:35.347Z,7.56
2023-04-07T07:20:02.110Z,7.78
2023-04-07T07:22:28.803Z,8.20
2023-04-07T07:24:55.379Z,7.98
2023-04-07T07:27:22.022Z,8.32
2023-04-07T07:29:48.609Z,8.47
2023-04-07T07:32:15.167Z,8.46
2023-04-07T07:34:41.829Z,8.58
2023-04-07T07:37:08.454Z,8.51
2023-04-07T07:39:35.125Z,8.72
2023-04-07T07:42:01.744Z,8.49
2023-04-07T07:44:29.319Z,8.74
2023-04-07T07:46:57.352Z,9.08
2023-04-07T07:49:23.932Z,9.13
2023-04-07T07:51:50.479Z,9.07
2023-04-07T07:54:17.058Z,9.17
2023-04-07T07:56:43.613Z,9.25
2023-04-07T07:59:10.144Z,9.44
2023-04-07T08:01:36.754Z,9.36
2023-04-07T08:04:03.949Z,9.24
2023-04-07T08:06:31.657Z,9.53
2023-04-07T08:08:58.975Z,9.47
2023-04-07T08:11:25.808Z,9.56
2023-04-07T08:13:54.059Z,9.84
2023-04-07T08:16:22.312Z,9.99
2023-04-07T08:18:49.534Z,9.85
2023-04-07T08:21:16.470Z,9.87
2023-04-07T08:23:43.662Z,9.81
2023-04-07T08:26:10.573Z,10.13
2023-04-07T08:28:37.197Z,10.11
2023-04-07T08:31:03.844Z,10.22
2023-04-07T08:33:30.717Z,10.19
2023-04-07T08:35:57.716Z,10.60
2023-04-07T08:38:24.425Z,10.72
2023-04-07T08:40:58.527Z,10.60
2023-04-07T08:43:27.126Z,10.68
2023-04-07T08:45:56.848Z,10.59
2023-04-07T08:48:27.528Z,10.76
2023-04-07T08:50:55.257Z,10.90
2023-04-07T08:53:29.881Z,11.17
2023-04-07T08:55:56.769Z,11.33
2023-04-07T08:58:24.050Z,11.47
2023-04-07T09:00:51.737Z,11.69
2023-04-07T09:03:19.680Z,11.81
2023-04-07T09:05:46.694Z,12.02
2023-04-07T09:08:13.390Z,12.04
2023-04-07T09:10:39.984Z,12.31
2023-04-07T09:13:06.860Z,11.93
2023-04-07T09:15:33.880Z,12.13
2023-04-07T09:18:00.755Z,12.00
2023-04-07T09:20:27.438Z,12.19
2023-04-07T09:22:54.191Z,11.79
2023-04-07T09:25:24.108Z,12.07
2023-04-07T09:28:04.421Z,12.36
2023-04-07T09:30:33.033Z,12.49
2023-04-07T09:33:01.337Z,12.57
2023-04-07T09:35:28.961Z,12.08
2023-04-07T09:38:05.737Z,12.86
2023-04-07T09:40:32.925Z,12.97
2023-04-07T09:43:00.096Z,12.63
2023-04-07T09:45:34.725Z,12.99
2023-04-07T09:48:17.985Z,12.55
2023-04-07T09:50:49.598Z,12.68
2023-04-07T09:53:17.319Z,12.81
2023-04-07T09:55:45.349Z,12.49
2023-04-07T09:58:14.066Z,12.86
2023-04-07T10:00:42.117Z,12.96
2023-04-07T10:03:09.223Z,12.80
2023-04-07T10:05:39.122Z,13.26
2023-04-07T10:08:06.927Z,13.36
2023-04-07T10:10:35.413Z,13.38
2023-04-07T10:13:06.440Z,13.21
2023-04-07T10:15:33.499Z,12.75
2023-04-07T10:18:01.029Z,13.30
2023-04-07T10:20:29.247Z,13.62
2023-04-07T10:23:04.474Z,13.79
2023-04-07T10:25:31.675Z,13.91
2023-04-07T10:28:06.947Z,14.29
2023-04-07T10:30:34.706Z,14.42
2023-04-07T10:33:01.443Z,13.52
2023-04-07T10:35:29.854Z,14.00
2023-04-07T10:38:10.942Z,14.33
2023-04-07T10:40:38.525Z,14.31
2023-04-07T10:43:11.480Z,14.75
2023-04-07T10:45:47.236Z,15.57
2023-04-07T10:48:16.654Z,16.08
2023-04-07T10:50:43.331Z,16.09
2023-04-07T10:53:13.767Z,16.64
2023-04-07T10:55:45.130Z,17.77
2023-04-07T10:58:25.114Z,18.15
2023-04-07T11:01:01.324Z,20.27
2023-04-07T11:03:29.630Z,21.69
2023-04-07T11:06:15.044Z,22.95
2023-04-07T11:08:48.964Z,25.01
2023-04-07T11:11:19.834Z,25.74
2023-04-07T11:13:51.490Z,26.14
2023-04-07T11:16:20.502Z,25.76
2023-04-07T11:18:51.006Z,24.77
2023-04-07T11:21:20.386Z,24.78
2023-04-07T11:23:48.397Z,25.28
2023-04-07T11:26:16.195Z,25.13
2023-04-07T11:28:47.728Z,24.54
2023-04-07T11:31:23.473Z,24.88
2023-04-07T11:34:02.031Z,25.02
2023-04-07T11:36:41.993Z,24.22
2023-04-07T11:39:20.685Z,24.68
2023-04-07T11:41:49.398Z,25.65
2023-04-07T11:44:16.333Z,25.74
2023-04-07T11:47:00.213Z,24.27
2023-04-07T11:49:28.879Z,23.83
2023-04-07T11:52:02.081Z,21.81
2023-04-07T11:54:48.042Z,20.73
2023-04-07T11:57:15.084Z,21.42
2023-04-07T11:59:42.173Z,22.03
2023-04-07T12:02:09.768Z,21.40
2023-04-07T12:04:40.437Z,21.80
2023-04-07T12:07:09.365Z,21.42
2023-04-07T12:09:36.564Z,21.56
2023-04-07T12:12:06.470Z,22.80
2023-04-07T12:14:33.837Z,23.67
2023-04-07T12:17:03.598Z,23.56
2023-04-07T12:19:36.133Z,23.16
2023-04-07T12:22:03.680Z,23.73
2023-04-07T12:24:32.450Z,24.55
2023-04-07T12:26:59.742Z,24.49
2023-04-07T12:29:26.506Z,24.93
2023-04-07T12:31:53.141Z,24.57
2023-04-07T12:34:19.920Z,24.13
2023-04-07T12:36:46.523Z,24.48
2023-04-07T12:39:13.356Z,23.07
2023-04-07T12:41:40.197Z,24.25
2023-04-07T12:44:07.115Z,25.01
2023-04-07T12:46:33.940Z,26.08
2023-04-07T12:49:01.273Z,27.91
2023-04-07T12:51:28.632Z,28.62
2023-04-07T12:53:55.251Z,29.15
2023-04-07T12:56:24.635Z,30.27
2023-04-07T12:58:51.486Z,29.74
2023-04-07T13:01:18.251Z,28.45
2023-04-07T13:03:45.301Z,28.19
2023-04-07T13:06:12.405Z,29.47
2023-04-07T13:08:41.303Z,29.28
2023-04-07T13:11:08.276Z,28.54
2023-04-07T13:13:34.904Z,27.92
2023-04-07T13:16:02.113Z,27.90
2023-04-07T13:18:28.853Z,28.51
2023-04-07T13:21:26.395Z,28.62
2023-04-07T13:23:43.848Z,29.41
2023-04-07T13:26:10.997Z,30.46
2023-04-07T13:28:38.199Z,31.35
2023-04-07T13:31:04.907Z,32.72
2023-04-07T13:33:31.556Z,32.24
2023-04-07T13:35:58.124Z,32.14
2023-04-07T13:38:24.712Z,32.71
2023-04-07T13:40:51.309Z,33.84
2023-04-07T13:43:19.175Z,33.54
2023-04-07T13:45:46.775Z,34.69
2023-04-07T13:48:13.799Z,35.42
2023-04-07T13:50:41.075Z,34.22
2023-04-07T13:53:07.690Z,31.91
2023-04-07T13:55:34.297Z,32.46
2023-04-07T13:58:01.070Z,31.08
2023-04-07T14:00:27.738Z,34.15
2023-04-07T14:02:56.376Z,35.12
2023-04-07T14:05:23.829Z,35.44
2023-04-07T14:07:51.278Z,35.56
2023-04-07T14:10:18.155Z,35.82
2023-04-07T14:12:44.874Z,34.37
2023-04-07T14:15:11.955Z,34.35
2023-04-07T14:17:38.747Z,34.02
2023-04-07T14:20:06.204Z,32.29
2023-04-07T14:22:32.758Z,32.53
2023-04-07T14:24:59.865Z,32.55
2023-04-07T14:27:27.088Z,33.55
2023-04-07T14:29:56.298Z,33.25
2023-04-07T14:32:22.863Z,31.73
2023-04-07T14:34:49.683Z,31.76
2023-04-07T14:37:18.249Z,29.21
2023-04-07T14:39:51.765Z,28.98
2023-04-07T14:42:29.899Z,27.99
2023-04-07T14:44:56.809Z,27.60
2023-04-07T14:47:23.766Z,26.23
2023-04-07T14:49:53.040Z,24.30
2023-04-07T14:52:20.864Z,21.64
2023-04-07T14:54:47.828Z,20.42
2023-04-07T14:57:14.527Z,19.04
2023-04-07T14:59:41.311Z,18.90
2023-04-07T15:02:08.026Z,17.38
2023-04-07T15:04:34.897Z,16.87
2023-04-07T15:07:01.626Z,15.79
2023-04-07T15:09:28.188Z,16.00
2023-04-07T15:11:56.495Z,15.49
2023-04-07T15:14:23.113Z,15.91
2023-04-07T15:16:50.690Z,15.34
2023-04-07T15:19:17.332Z,15.78
2023-04-07T15:21:43.883Z,15.92
2023-04-07T15:24:10.425Z,15.74
2023-04-07T15:26:37.257Z,15.14
2023-04-07T15:29:03.897Z,15.15
2023-04-07T15:31:30.595Z,14.94
2023-04-07T15:33:57.182Z,14.57
2023-04-07T15:36:23.814Z,14.64
2023-04-07T15:38:50.508Z,14.73
2023-04-07T15:41:17.452Z,14.26
2023-04-07T15:43:44.084Z,14.33
2023-04-07T15:46:11.133Z,13.64
2023-04-07T15:48:37.657Z,14.03
2023-04-07T15:51:04.415Z,13.59
2023-04-07T15:53:31.174Z,12.95
2023-04-07T15:56:01.682Z,12.91
2023-04-07T15:58:28.325Z,12.73
2023-04-07T16:00:55.114Z,12.87
2023-04-07T16:03:22.419Z,12.70
2023-04-07T16:05:51.214Z,12.53
2023-04-07T16:08:17.984Z,12.16
2023-04-07T16:10:44.961Z,11.85
2023-04-07T16:13:11.739Z,11.74
2023-04-07T16:15:41.242Z,11.94
2023-04-07T16:18:10.268Z,12.07
2023-04-07T16:20:36.858Z,11.91
2023-04-07T16:23:03.874Z,11.49
2023-04-07T16:25:30.965Z,11.38
2023-04-07T16:27:57.599Z,11.40
2023-04-07T16:30:25.443Z,11.07
2023-04-07T16:32:52.345Z,11.25
2023-04-07T16:35:19.173Z,11.38
2023-04-07T16:37:46.752Z,11.40
2023-04-07T16:40:13.935Z,10.81
2023-04-07T16:42:41.032Z,10.93
2023-04-07T16:45:08.653Z,10.95
2023-04-07T16:47:35.842Z,11.08
2023-04-07T16:50:04.256Z,11.00
2023-04-07T16:52:31.481Z,10.74
2023-04-07T16:54:58.431Z,10.70
2023-04-07T16:57:25.133Z,10.55
2023-04-07T16:59:51.789Z,10.46
2023-04-07T17:02:18.787Z,10.57
2023-04-07T17:04:45.603Z,10.56
2023-04-07T17:07:12.516Z,10.78
2023-04-07T17:09:39.742Z,10.35
2023-04-07T17:12:06.593Z,10.57
2023-04-07T17:14:33.841Z,10.70
2023-04-07T17:17:01.161Z,10.29
2023-04-07T17:19:27.918Z,10.06
2023-04-07T17:21:54.597Z,9.60
2023-04-07T17:24:21.306Z,9.59
2023-04-07T17:26:48.057Z,9.45
2023-04-07T17:29:16.115Z,9.67
2023-04-07T17:31:43.114Z,9.58
2023-04-07T17:34:11.063Z,9.54
2023-04-07T17:36:38.124Z,9.49
2023-04-07T17:39:05.515Z,9.48
2023-04-07T17:41:35.077Z,9.09
2023-04-07T17:44:02.203Z,9.25
2023-04-07T17:46:29.257Z,9.40
2023-04-07T17:48:59.161Z,8.84
2023-04-07T17:51:26.734Z,9.19
2023-04-07T17:53:53.899Z,9.34
2023-04-07T17:56:24.026Z,9.32
2023-04-07T17:58:50.666Z,8.96
2023-04-07T18:01:18.015Z,8.89
2023-04-07T18:03:44.767Z,9.14
2023-04-07T18:06:16.655Z,8.85
2023-04-07T18:08:46.293Z,9.08
2023-04-07T18:11:13.107Z,8.98
2023-04-07T18:13:39.777Z,8.96
2023-04-07T18:16:09.772Z,8.87
2023-04-07T18:18:38.172Z,8.87
2023-04-07T18:21:06.665Z,8.77
2023-04-07T18:23:33.519Z,8.81
2023-04-07T18:26:03.860Z,8.87
2023-04-07T18:28:30.802Z,8.93
2023-04-07T18:31:02.575Z,8.74
2023-04-07T18:33:33.143Z,8.76
2023-04-07T18:36:05.007Z,8.76
2023-04-07T18:38:31.849Z,8.59
2023-04-07T18:40:58.810Z,8.22
2023-04-07T18:43:26.573Z,8.61
2023-04-07T18:45:53.089Z,8.63
2023-04-07T18:48:20.078Z,8.62
2023-04-07T18:50:51.492Z,8.54
2023-04-07T18:53:19.299Z,8.51
2023-04-07T18:55:46.188Z,8.58
2023-04-07T18:58:12.851Z,8.48
2023-04-07T19:00:39.482Z,8.41
2023-04-07T19:03:06.307Z,8.49
2023-04-07T19:05:33.303Z,8.38
2023-04-07T19:08:00.467Z,8.25
2023-04-07T19:10:27.236Z,8.21
2023-04-07T19:12:53.772Z,8.22
2023-04-07T19:15:20.797Z,8.37
2023-04-07T19:17:47.693Z,8.47
2023-04-07T19:20:14.357Z,8.19
2023-04-07T19:22:40.896Z,8.34
2023-04-07T19:25:07.931Z,7.86
2023-04-07T19:27:34.765Z,7.76
2023-04-07T19:30:01.360Z,7.96
2023-04-07T19:32:28.530Z,8.19
2023-04-07T19:34:55.124Z,8.09
2023-04-07T19:37:21.726Z,8.29
2023-04-07T19:40:01.783Z,7.75
2023-04-07T19:42:37.005Z,8.35
2023-04-07T19:45:07.354Z,8.35
2023-04-07T19:47:35.398Z,8.02
2023-04-07T19:50:02.499Z,8.30
2023-04-07T19:52:31.012Z,8.16
2023-04-07T19:54:58.645Z,8.10
2023-04-07T19:57:25.489Z,8.01
2023-04-07T19:59:52.124Z,8.01
2023-04-07T20:02:18.765Z,8.29
2023-04-07T20:04:46.073Z,8.09
2023-04-07T20:07:12.922Z,8.08
2023-04-07T20:09:39.588Z,8.11
2023-04-07T20:12:06.370Z,8.21
2023-04-07T20:14:32.975Z,8.24
2023-04-07T20:16:59.898Z,8.27
2023-04-07T20:19:26.735Z,8.28
2023-04-07T20:21:53.448Z,8.32
2023-04-07T20:24:20.114Z,8.23
2023-04-07T20:26:46.709Z,8.21
2023-04-07T20:29:13.340Z,8.12
2023-04-07T20:31:41.278Z,8.07
2023-04-07T20:34:07.877Z,8.20
2023-04-07T20:36:34.483Z,7.95
2023-04-07T20:39:01.481Z,8.22
2023-04-07T20:41:28.830Z,8.14
2023-04-07T20:43:55.941Z,8.03
2023-04-07T20:46:22.626Z,7.84
2023-04-07T20:48:49.412Z,8.06
2023-04-07T20:51:16.821Z,8.08
2023-04-07T20:53:43.433Z,7.97
2023-04-07T20:56:10.882Z,7.98
2023-04-07T20:58:37.428Z,8.02
2023-04-07T21:01:04.052Z,8.23
2023-04-07T21:03:31.259Z,7.96
2023-04-07T21:05:58.065Z,8.32
2023-04-07T21:08:24.763Z,8.14
2023-04-07T21:10:52.649Z,8.24
2023-04-07T21:13:20.062Z,8.13
2023-04-07T21:15:46.636Z,8.27
2023-04-07T21:18:13.513Z,7.98
2023-04-07T21:20:40.164Z,8.26
2023-04-07T21:23:10.709Z,8.33
2023-04-07T21:25:38.317Z,8.23
2023-04-07T21:28:05.776Z,7.84
2023-04-07T21:30:33.354Z,8.16
2023-04-07T21:33:00.144Z,7.75
2023-04-07T21:35:28.883Z,8.05
2023-04-07T21:37:55.878Z,8.12
2023-04-07T21:40:22.455Z,8.14
2023-04-07T21:42:49.151Z,7.88
2023-04-07T21:45:16.305Z,8.06
2023-04-07T21:47:43.076Z,8.14
2023-04-07T21:50:10.213Z,7.97
2023-04-07T21:52:36.994Z,7.89
2023-04-07T21:55:04.127Z,7.97
2023-04-07T21:57:30.905Z,8.07
2023-04-07T21:59:57.475Z,8.01
2023-04-07T22:02:24.156Z,8.14
2023-04-07T22:04:50.872Z,7.05
2023-04-07T22:07:17.491Z,7.74
2023-04-07T22:09:44.078Z,7.95
2023-04-07T22:12:10.942Z,8.10
2023-04-07T22:14:37.616Z,8.20
2023-04-07T22:17:04.282Z,8.13
2023-04-07T22:19:31.198Z,7.91
2023-04-07T22:21:57.761Z,7.88
2023-04-07T22:24:24.318Z,8.04
2023-04-07T22:26:51.091Z,8.11
2023-04-07T22:29:17.742Z,8.03
2023-04-07T22:31:44.513Z,7.95
2023-04-07T22:34:11.537Z,7.96
2023-04-07T22:36:38.099Z,8.05
2023-04-07T22:39:04.763Z,8.03
2023-04-07T22:41:31.500Z,7.97
2023-04-07T22:43:58.141Z,8.03
2023-04-07T22:46:27.687Z,8.05
2023-04-07T22:48:54.381Z,8.10
2023-04-07T22:51:21.355Z,8.05
2023-04-07T22:53:48.193Z,8.19
2023-04-07T22:56:14.885Z,8.07
2023-04-07T22:58:41.607Z,7.49
2023-04-07T23:01:08.226Z,7.91
2023-04-07T23:03:34.831Z,7.75
2023-04-07T23:06:02.694Z,8.24
2023-04-07T23:08:29.309Z,7.51
2023-04-07T23:10:55.836Z,7.80
2023-04-07T23:13:22.489Z,7.60
2023-04-07T23:15:49.069Z,7.92
2023-04-07T23:18:15.822Z,8.10
2023-04-07T23:20:42.997Z,8.13
2023-04-07T23:23:09.638Z,7.97
2023-04-07T23:25:36.306Z,7.85
2023-04-07T23:28:03.091Z,7.65
2023-04-07T23:30:29.834Z,7.67
2023-04-07T23:32:56.808Z,7.95
2023-04-07T23:35:23.354Z,8.13
2023-04-07T23:37:49.885Z,8.08
2023-04-07T23:40:16.752Z,8.13
2023-04-07T23:42:43.357Z,8.24
2023-04-07T23:45:10.602Z,7.73
2023-04-07T23:47:37.219Z,8.13
2023-04-07T23:50:04.067Z,8.05
2023-04-07T23:52:31.170Z,8.08
2023-04-07T23:54:57.815Z,7.67
2023-04-07T23:57:24.385Z,8.10
2023-04-07T23:59:50.938Z,8.05
